sensor_id;sensor_type;location;lat;lon;timestamp;temperature;humidity
12130;DHT22;6128;59.340;18.040;2023-08-01T00:00:12;15.10;99.90
12130;DHT22;6128;59.340;18.040;2023-08-01T00:02:41;15.10;99.90
12130;DHT22;6128;59.340;18.040;2023-08-01T00:05:09;15.20;99.90
12130;DHT22;6128;59.340;18.040;2023-08-01T00:07:36;15.10;99.90
12130;DHT22;6128;59.340;18.040;2023-08-01T00:10:04;15.10;99.90
12130;DHT22;6128;59.340;18.040;2023-08-01T00:12:32;15.10;99.90
12130;DHT22;6128;59.340;18.040;2023-08-01T00:15:00;15.10;99.90
12130;DHT22;6128;59.340;18.040;2023-08-01T00:17:27;15.10;99.90
12130;DHT22;6128;59.340;18.040;2023-08-01T00:19:55;15.10;99.90
12130;DHT22;6128;59.340;18.040;2023-08-01T00:22:22;15.10;99.90
12130;DHT22;6128;59.340;18.040;2023-08-01T00:24:51;15.10;99.90
12130;DHT22;6128;59.340;18.040;2023-08-01T00:27:20;15.10;99.90
12130;DHT22;6128;59.340;18.040;2023-08-01T00:29:50;15.20;99.90
12130;DHT22;6128;59.340;18.040;2023-08-01T00:32:17;15.20;99.90
12130;DHT22;6128;59.340;18.040;2023-08-01T00:34:44;15.10;99.90
12130;DHT22;6128;59.340;18.040;2023-08-01T00:37:13;15.10;99.90
12130;DHT22;6128;59.340;18.040;2023-08-01T00:39:40;15.20;99.90
12130;DHT22;6128;59.340;18.040;2023-08-01T00:42:07;15.20;99.90
12130;DHT22;6128;59.340;18.040;2023-08-01T00:44:37;15.20;99.90
12130;DHT22;6128;59.340;18.040;2023-08-01T00:47:04;15.20;99.90
12130;DHT22;6128;59.340;18.040;2023-08-01T00:49:32;15.20;99.90
12130;DHT22;6128;59.340;18.040;2023-08-01T00:51:59;15.20;99.90
12130;DHT22;6128;59.340;18.040;2023-08-01T00:54:28;15.10;99.90
12130;DHT22;6128;59.340;18.040;2023-08-01T00:57:01;15.10;99.90
12130;DHT22;6128;59.340;18.040;2023-08-01T00:59:28;15.10;99.90
12130;DHT22;6128;59.340;18.040;2023-08-01T01:01:57;15.10;99.90
12130;DHT22;6128;59.340;18.040;2023-08-01T01:04:27;15.10;99.90
12130;DHT22;6128;59.340;18.040;2023-08-01T01:06:58;15.10;99.90
12130;DHT22;6128;59.340;18.040;2023-08-01T01:09:30;15.10;99.90
12130;DHT22;6128;59.340;18.040;2023-08-01T01:11:58;15.10;99.90
12130;DHT22;6128;59.340;18.040;2023-08-01T01:14:26;15.20;99.90
12130;DHT22;6128;59.340;18.040;2023-08-01T01:16:53;15.20;99.90
12130;DHT22;6128;59.340;18.040;2023-08-01T01:19:20;15.10;99.90
12130;DHT22;6128;59.340;18.040;2023-08-01T01:21:51;15.10;99.90
12130;DHT22;6128;59.340;18.040;2023-08-01T01:24:19;15.10;99.90
12130;DHT22;6128;59.340;18.040;2023-08-01T01:26:47;15.10;99.90
12130;DHT22;6128;59.340;18.040;2023-08-01T01:29:15;15.10;99.90
12130;DHT22;6128;59.340;18.040;2023-08-01T01:31:43;15.10;99.90
12130;DHT22;6128;59.340;18.040;2023-08-01T01:34:10;15.00;99.90
12130;DHT22;6128;59.340;18.040;2023-08-01T01:36:37;15.00;99.90
12130;DHT22;6128;59.340;18.040;2023-08-01T01:39:06;15.00;99.90
12130;DHT22;6128;59.340;18.040;2023-08-01T01:41:33;15.00;99.90
12130;DHT22;6128;59.340;18.040;2023-08-01T01:44:00;15.00;99.90
12130;DHT22;6128;59.340;18.040;2023-08-01T01:46:27;14.90;99.90
12130;DHT22;6128;59.340;18.040;2023-08-01T01:48:54;14.90;99.90
12130;DHT22;6128;59.340;18.040;2023-08-01T01:51:24;14.90;99.90
12130;DHT22;6128;59.340;18.040;2023-08-01T01:53:52;14.90;99.90
12130;DHT22;6128;59.340;18.040;2023-08-01T01:56:21;14.90;99.90
12130;DHT22;6128;59.340;18.040;2023-08-01T01:58:48;14.90;99.90
12130;DHT22;6128;59.340;18.040;2023-08-01T02:01:15;14.80;99.90
12130;DHT22;6128;59.340;18.040;2023-08-01T02:03:43;14.80;99.90
12130;DHT22;6128;59.340;18.040;2023-08-01T02:06:10;14.70;99.90
12130;DHT22;6128;59.340;18.040;2023-08-01T02:08:37;14.70;99.90
12130;DHT22;6128;59.340;18.040;2023-08-01T02:11:04;14.70;99.90
12130;DHT22;6128;59.340;18.040;2023-08-01T02:13:33;14.60;99.90
12130;DHT22;6128;59.340;18.040;2023-08-01T02:16:01;14.60;99.90
12130;DHT22;6128;59.340;18.040;2023-08-01T02:18:28;14.60;99.90
12130;DHT22;6128;59.340;18.040;2023-08-01T02:20:55;14.50;99.90
12130;DHT22;6128;59.340;18.040;2023-08-01T02:23:22;14.50;99.90
12130;DHT22;6128;59.340;18.040;2023-08-01T02:25:49;14.50;99.90
12130;DHT22;6128;59.340;18.040;2023-08-01T02:28:18;14.50;99.90
12130;DHT22;6128;59.340;18.040;2023-08-01T02:30:47;14.50;99.90
12130;DHT22;6128;59.340;18.040;2023-08-01T02:33:16;14.50;99.90
12130;DHT22;6128;59.340;18.040;2023-08-01T02:35:43;14.50;99.90
12130;DHT22;6128;59.340;18.040;2023-08-01T02:38:10;14.50;99.90
12130;DHT22;6128;59.340;18.040;2023-08-01T02:40:37;14.50;99.90
12130;DHT22;6128;59.340;18.040;2023-08-01T02:43:04;14.50;99.90
12130;DHT22;6128;59.340;18.040;2023-08-01T02:45:31;14.50;99.90
12130;DHT22;6128;59.340;18.040;2023-08-01T02:48:00;14.50;99.90
12130;DHT22;6128;59.340;18.040;2023-08-01T02:50:27;14.60;99.90
12130;DHT22;6128;59.340;18.040;2023-08-01T02:52:54;14.60;99.90
12130;DHT22;6128;59.340;18.040;2023-08-01T02:55:21;14.60;99.90
12130;DHT22;6128;59.340;18.040;2023-08-01T02:57:48;14.60;99.90
12130;DHT22;6128;59.340;18.040;2023-08-01T03:00:16;14.60;99.90
12130;DHT22;6128;59.340;18.040;2023-08-01T03:02:43;14.60;99.90
12130;DHT22;6128;59.340;18.040;2023-08-01T03:05:12;14.60;99.90
12130;DHT22;6128;59.340;18.040;2023-08-01T03:07:39;14.60;99.90
12130;DHT22;6128;59.340;18.040;2023-08-01T03:10:07;14.50;99.90
12130;DHT22;6128;59.340;18.040;2023-08-01T03:12:35;14.50;99.90
12130;DHT22;6128;59.340;18.040;2023-08-01T03:15:02;14.50;99.90
12130;DHT22;6128;59.340;18.040;2023-08-01T03:17:29;14.50;99.90
12130;DHT22;6128;59.340;18.040;2023-08-01T03:19:56;14.50;99.90
12130;DHT22;6128;59.340;18.040;2023-08-01T03:22:25;14.50;99.90
12130;DHT22;6128;59.340;18.040;2023-08-01T03:24:52;14.60;99.90
12130;DHT22;6128;59.340;18.040;2023-08-01T03:27:19;14.60;99.90
12130;DHT22;6128;59.340;18.040;2023-08-01T03:29:46;14.70;99.90
12130;DHT22;6128;59.340;18.040;2023-08-01T03:32:13;14.70;99.90
12130;DHT22;6128;59.340;18.040;2023-08-01T03:34:40;14.80;99.90
12130;DHT22;6128;59.340;18.040;2023-08-01T03:37:08;14.80;99.90
12130;DHT22;6128;59.340;18.040;2023-08-01T03:39:37;14.80;99.90
12130;DHT22;6128;59.340;18.040;2023-08-01T03:42:04;14.80;99.90
12130;DHT22;6128;59.340;18.040;2023-08-01T03:44:32;14.90;99.90
12130;DHT22;6128;59.340;18.040;2023-08-01T03:46:59;15.00;99.90
12130;DHT22;6128;59.340;18.040;2023-08-01T03:49:26;15.00;99.90
12130;DHT22;6128;59.340;18.040;2023-08-01T03:51:55;15.00;99.90
12130;DHT22;6128;59.340;18.040;2023-08-01T03:54:22;15.10;99.90
12130;DHT22;6128;59.340;18.040;2023-08-01T03:56:51;15.10;99.90
12130;DHT22;6128;59.340;18.040;2023-08-01T03:59:18;15.10;99.90
12130;DHT22;6128;59.340;18.040;2023-08-01T04:01:45;15.20;99.90
12130;DHT22;6128;59.340;18.040;2023-08-01T04:04:12;15.20;99.90
12130;DHT22;6128;59.340;18.040;2023-08-01T04:06:39;15.20;99.90
12130;DHT22;6128;59.340;18.040;2023-08-01T04:09:07;15.20;99.90
12130;DHT22;6128;59.340;18.040;2023-08-01T04:11:35;15.20;99.90
12130;DHT22;6128;59.340;18.040;2023-08-01T04:14:04;15.20;99.90
12130;DHT22;6128;59.340;18.040;2023-08-01T04:16:31;15.10;99.90
12130;DHT22;6128;59.340;18.040;2023-08-01T04:18:58;15.20;99.90
12130;DHT22;6128;59.340;18.040;2023-08-01T04:21:25;15.20;99.90
12130;DHT22;6128;59.340;18.040;2023-08-01T04:23:52;15.20;99.90
12130;DHT22;6128;59.340;18.040;2023-08-01T04:26:20;15.20;99.90
12130;DHT22;6128;59.340;18.040;2023-08-01T04:28:47;15.30;99.90
12130;DHT22;6128;59.340;18.040;2023-08-01T04:31:17;15.30;99.90
12130;DHT22;6128;59.340;18.040;2023-08-01T04:33:44;15.30;99.90
12130;DHT22;6128;59.340;18.040;2023-08-01T04:36:12;15.30;99.90
12130;DHT22;6128;59.340;18.040;2023-08-01T04:38:39;15.20;99.90
12130;DHT22;6128;59.340;18.040;2023-08-01T04:41:06;15.30;99.90
12130;DHT22;6128;59.340;18.040;2023-08-01T04:43:33;15.30;99.90
12130;DHT22;6128;59.340;18.040;2023-08-01T04:46:00;15.30;99.90
12130;DHT22;6128;59.340;18.040;2023-08-01T04:48:29;15.40;99.90
12130;DHT22;6128;59.340;18.040;2023-08-01T04:50:56;15.40;99.90
12130;DHT22;6128;59.340;18.040;2023-08-01T04:53:23;15.50;99.90
12130;DHT22;6128;59.340;18.040;2023-08-01T04:55:51;15.50;99.90
12130;DHT22;6128;59.340;18.040;2023-08-01T04:58:18;15.60;99.90
12130;DHT22;6128;59.340;18.040;2023-08-01T05:00:45;15.60;99.90
12130;DHT22;6128;59.340;18.040;2023-08-01T05:03:12;15.70;99.90
12130;DHT22;6128;59.340;18.040;2023-08-01T05:05:40;15.70;99.90
12130;DHT22;6128;59.340;18.040;2023-08-01T05:08:07;15.80;99.90
12130;DHT22;6128;59.340;18.040;2023-08-01T05:10:34;15.80;99.90
12130;DHT22;6128;59.340;18.040;2023-08-01T05:13:01;15.80;99.90
12130;DHT22;6128;59.340;18.040;2023-08-01T05:15:29;15.80;99.90
12130;DHT22;6128;59.340;18.040;2023-08-01T05:17:56;15.90;99.90
12130;DHT22;6128;59.340;18.040;2023-08-01T05:20:23;16.00;99.90
12130;DHT22;6128;59.340;18.040;2023-08-01T05:22:57;16.10;99.90
12130;DHT22;6128;59.340;18.040;2023-08-01T05:25:26;16.20;99.90
12130;DHT22;6128;59.340;18.040;2023-08-01T05:27:53;16.20;99.90
12130;DHT22;6128;59.340;18.040;2023-08-01T05:30:20;16.30;99.90
12130;DHT22;6128;59.340;18.040;2023-08-01T05:32:47;16.50;99.90
12130;DHT22;6128;59.340;18.040;2023-08-01T05:35:15;16.70;99.90
12130;DHT22;6128;59.340;18.040;2023-08-01T05:37:42;16.80;99.90
12130;DHT22;6128;59.340;18.040;2023-08-01T05:40:11;16.90;99.90
12130;DHT22;6128;59.340;18.040;2023-08-01T05:42:39;16.90;99.90
12130;DHT22;6128;59.340;18.040;2023-08-01T05:45:07;16.90;99.90
12130;DHT22;6128;59.340;18.040;2023-08-01T05:47:34;16.90;99.90
12130;DHT22;6128;59.340;18.040;2023-08-01T05:50:02;16.90;99.90
12130;DHT22;6128;59.340;18.040;2023-08-01T05:52:30;17.00;99.90
12130;DHT22;6128;59.340;18.040;2023-08-01T05:54:57;17.00;99.90
12130;DHT22;6128;59.340;18.040;2023-08-01T05:57:26;17.10;99.90
12130;DHT22;6128;59.340;18.040;2023-08-01T05:59:53;17.30;99.90
12130;DHT22;6128;59.340;18.040;2023-08-01T06:02:20;17.50;99.90
12130;DHT22;6128;59.340;18.040;2023-08-01T06:04:47;17.70;99.90
12130;DHT22;6128;59.340;18.040;2023-08-01T06:07:14;17.80;99.90
12130;DHT22;6128;59.340;18.040;2023-08-01T06:09:41;17.90;99.90
12130;DHT22;6128;59.340;18.040;2023-08-01T06:12:08;18.10;99.90
12130;DHT22;6128;59.340;18.040;2023-08-01T06:14:37;18.10;99.90
12130;DHT22;6128;59.340;18.040;2023-08-01T06:17:05;18.10;99.90
12130;DHT22;6128;59.340;18.040;2023-08-01T06:19:33;18.10;99.90
12130;DHT22;6128;59.340;18.040;2023-08-01T06:22:00;18.00;99.90
12130;DHT22;6128;59.340;18.040;2023-08-01T06:24:27;18.00;99.90
12130;DHT22;6128;59.340;18.040;2023-08-01T06:26:54;17.90;99.90
12130;DHT22;6128;59.340;18.040;2023-08-01T06:29:22;18.00;99.90
12130;DHT22;6128;59.340;18.040;2023-08-01T06:31:52;18.00;99.90
12130;DHT22;6128;59.340;18.040;2023-08-01T06:34:19;18.00;99.90
12130;DHT22;6128;59.340;18.040;2023-08-01T06:36:46;18.00;99.90
12130;DHT22;6128;59.340;18.040;2023-08-01T06:39:13;18.00;99.90
12130;DHT22;6128;59.340;18.040;2023-08-01T06:41:40;18.00;99.90
12130;DHT22;6128;59.340;18.040;2023-08-01T06:44:08;18.10;99.90
12130;DHT22;6128;59.340;18.040;2023-08-01T06:46:34;18.10;99.90
12130;DHT22;6128;59.340;18.040;2023-08-01T06:49:03;18.30;99.90
12130;DHT22;6128;59.340;18.040;2023-08-01T06:51:30;18.80;99.90
12130;DHT22;6128;59.340;18.040;2023-08-01T06:53:57;19.00;99.90
12130;DHT22;6128;59.340;18.040;2023-08-01T06:56:24;19.30;99.90
12130;DHT22;6128;59.340;18.040;2023-08-01T06:58:52;19.40;99.90
12130;DHT22;6128;59.340;18.040;2023-08-01T07:01:19;19.40;99.90
12130;DHT22;6128;59.340;18.040;2023-08-01T07:03:48;19.50;99.90
12130;DHT22;6128;59.340;18.040;2023-08-01T07:06:18;19.70;99.90
12130;DHT22;6128;59.340;18.040;2023-08-01T07:08:45;19.90;99.90
12130;DHT22;6128;59.340;18.040;2023-08-01T07:11:12;20.20;99.90
12130;DHT22;6128;59.340;18.040;2023-08-01T07:13:39;20.50;99.90
12130;DHT22;6128;59.340;18.040;2023-08-01T07:16:06;20.90;99.90
12130;DHT22;6128;59.340;18.040;2023-08-01T07:18:33;21.10;99.90
12130;DHT22;6128;59.340;18.040;2023-08-01T07:21:00;21.10;99.90
12130;DHT22;6128;59.340;18.040;2023-08-01T07:23:29;20.70;99.90
12130;DHT22;6128;59.340;18.040;2023-08-01T07:25:56;20.40;99.90
12130;DHT22;6128;59.340;18.040;2023-08-01T07:28:23;20.30;99.90
12130;DHT22;6128;59.340;18.040;2023-08-01T07:30:58;20.20;99.90
12130;DHT22;6128;59.340;18.040;2023-08-01T07:33:26;20.00;99.90
12130;DHT22;6128;59.340;18.040;2023-08-01T07:35:53;20.00;99.90
12130;DHT22;6128;59.340;18.040;2023-08-01T07:38:20;20.10;99.90
12130;DHT22;6128;59.340;18.040;2023-08-01T07:40:49;19.90;99.90
12130;DHT22;6128;59.340;18.040;2023-08-01T07:43:16;19.80;99.90
12130;DHT22;6128;59.340;18.040;2023-08-01T07:45:44;19.80;99.90
12130;DHT22;6128;59.340;18.040;2023-08-01T07:48:11;19.60;99.90
12130;DHT22;6128;59.340;18.040;2023-08-01T07:50:38;19.30;99.90
12130;DHT22;6128;59.340;18.040;2023-08-01T07:53:08;19.20;99.90
12130;DHT22;6128;59.340;18.040;2023-08-01T07:55:35;19.10;99.90
12130;DHT22;6128;59.340;18.040;2023-08-01T07:58:04;19.10;99.90
12130;DHT22;6128;59.340;18.040;2023-08-01T08:00:31;19.00;99.90
12130;DHT22;6128;59.340;18.040;2023-08-01T08:02:58;18.90;99.90
12130;DHT22;6128;59.340;18.040;2023-08-01T08:05:25;18.90;99.90
12130;DHT22;6128;59.340;18.040;2023-08-01T08:07:52;19.00;99.90
12130;DHT22;6128;59.340;18.040;2023-08-01T08:10:20;19.10;99.90
12130;DHT22;6128;59.340;18.040;2023-08-01T08:12:48;19.10;99.90
12130;DHT22;6128;59.340;18.040;2023-08-01T08:15:17;19.00;99.90
12130;DHT22;6128;59.340;18.040;2023-08-01T08:17:48;19.10;99.90
12130;DHT22;6128;59.340;18.040;2023-08-01T08:20:16;19.10;99.90
12130;DHT22;6128;59.340;18.040;2023-08-01T08:22:43;19.10;99.90
12130;DHT22;6128;59.340;18.040;2023-08-01T08:25:10;19.00;99.90
12130;DHT22;6128;59.340;18.040;2023-08-01T08:27:37;19.20;99.90
12130;DHT22;6128;59.340;18.040;2023-08-01T08:30:06;19.60;99.90
12130;DHT22;6128;59.340;18.040;2023-08-01T08:32:35;20.20;99.90
12130;DHT22;6128;59.340;18.040;2023-08-01T08:35:03;20.70;99.90
12130;DHT22;6128;59.340;18.040;2023-08-01T08:37:30;20.90;99.90
12130;DHT22;6128;59.340;18.040;2023-08-01T08:39:57;21.20;99.90
12130;DHT22;6128;59.340;18.040;2023-08-01T08:42:24;21.50;99.90
12130;DHT22;6128;59.340;18.040;2023-08-01T08:44:55;21.70;99.90
12130;DHT22;6128;59.340;18.040;2023-08-01T08:47:25;21.90;99.90
12130;DHT22;6128;59.340;18.040;2023-08-01T08:49:55;21.90;99.90
12130;DHT22;6128;59.340;18.040;2023-08-01T08:52:23;22.20;99.90
12130;DHT22;6128;59.340;18.040;2023-08-01T08:54:51;22.40;99.90
12130;DHT22;6128;59.340;18.040;2023-08-01T08:57:19;22.40;99.90
12130;DHT22;6128;59.340;18.040;2023-08-01T08:59:47;22.40;99.90
12130;DHT22;6128;59.340;18.040;2023-08-01T09:02:15;22.60;99.90
12130;DHT22;6128;59.340;18.040;2023-08-01T09:04:43;22.80;99.90
12130;DHT22;6128;59.340;18.040;2023-08-01T09:07:13;23.00;99.90
12130;DHT22;6128;59.340;18.040;2023-08-01T09:09:42;23.40;99.90
12130;DHT22;6128;59.340;18.040;2023-08-01T09:12:09;23.80;99.90
12130;DHT22;6128;59.340;18.040;2023-08-01T09:14:36;24.00;99.90
12130;DHT22;6128;59.340;18.040;2023-08-01T09:17:07;24.30;99.90
12130;DHT22;6128;59.340;18.040;2023-08-01T09:19:34;24.20;99.90
12130;DHT22;6128;59.340;18.040;2023-08-01T09:22:02;24.10;99.90
12130;DHT22;6128;59.340;18.040;2023-08-01T09:24:37;24.20;99.90
12130;DHT22;6128;59.340;18.040;2023-08-01T09:27:05;24.30;99.90
12130;DHT22;6128;59.340;18.040;2023-08-01T09:29:34;24.40;99.90
12130;DHT22;6128;59.340;18.040;2023-08-01T09:32:11;24.20;99.90
12130;DHT22;6128;59.340;18.040;2023-08-01T09:34:39;23.80;99.90
12130;DHT22;6128;59.340;18.040;2023-08-01T09:37:06;23.50;99.90
12130;DHT22;6128;59.340;18.040;2023-08-01T09:39:33;23.10;99.90
12130;DHT22;6128;59.340;18.040;2023-08-01T09:42:03;22.80;99.90
12130;DHT22;6128;59.340;18.040;2023-08-01T09:44:35;22.70;99.90
12130;DHT22;6128;59.340;18.040;2023-08-01T09:47:04;22.60;99.90
12130;DHT22;6128;59.340;18.040;2023-08-01T09:49:33;22.50;99.90
12130;DHT22;6128;59.340;18.040;2023-08-01T09:52:00;22.30;99.90
12130;DHT22;6128;59.340;18.040;2023-08-01T09:54:28;22.10;99.90
12130;DHT22;6128;59.340;18.040;2023-08-01T09:56:55;21.90;99.90
12130;DHT22;6128;59.340;18.040;2023-08-01T09:59:25;21.80;99.90
12130;DHT22;6128;59.340;18.040;2023-08-01T10:01:53;21.80;99.90
12130;DHT22;6128;59.340;18.040;2023-08-01T10:04:23;21.70;99.90
12130;DHT22;6128;59.340;18.040;2023-08-01T10:06:58;21.80;99.90
12130;DHT22;6128;59.340;18.040;2023-08-01T10:09:25;21.90;99.90
12130;DHT22;6128;59.340;18.040;2023-08-01T10:11:56;21.80;99.90
12130;DHT22;6128;59.340;18.040;2023-08-01T10:14:25;21.70;99.90
12130;DHT22;6128;59.340;18.040;2023-08-01T10:16:54;21.70;99.90
12130;DHT22;6128;59.340;18.040;2023-08-01T10:19:22;21.80;99.90
12130;DHT22;6128;59.340;18.040;2023-08-01T10:21:49;21.80;99.90
12130;DHT22;6128;59.340;18.040;2023-08-01T10:24:17;21.70;99.90
12130;DHT22;6128;59.340;18.040;2023-08-01T10:26:45;21.70;99.90
12130;DHT22;6128;59.340;18.040;2023-08-01T10:29:13;21.60;99.90
12130;DHT22;6128;59.340;18.040;2023-08-01T10:31:50;21.70;99.90
12130;DHT22;6128;59.340;18.040;2023-08-01T10:34:17;21.70;99.90
12130;DHT22;6128;59.340;18.040;2023-08-01T10:36:53;21.40;99.90
12130;DHT22;6128;59.340;18.040;2023-08-01T10:39:21;21.40;99.90
12130;DHT22;6128;59.340;18.040;2023-08-01T10:41:57;21.40;99.90
12130;DHT22;6128;59.340;18.040;2023-08-01T10:44:25;21.30;99.90
12130;DHT22;6128;59.340;18.040;2023-08-01T10:46:56;21.30;99.90
12130;DHT22;6128;59.340;18.040;2023-08-01T10:49:34;21.30;99.90
12130;DHT22;6128;59.340;18.040;2023-08-01T10:52:01;21.20;99.90
12130;DHT22;6128;59.340;18.040;2023-08-01T10:54:29;21.20;99.90
12130;DHT22;6128;59.340;18.040;2023-08-01T10:56:57;21.10;99.90
12130;DHT22;6128;59.340;18.040;2023-08-01T10:59:25;21.10;99.90
12130;DHT22;6128;59.340;18.040;2023-08-01T11:01:58;21.10;99.90
12130;DHT22;6128;59.340;18.040;2023-08-01T11:04:25;21.10;99.90
12130;DHT22;6128;59.340;18.040;2023-08-01T11:06:53;21.10;99.90
12130;DHT22;6128;59.340;18.040;2023-08-01T11:09:22;21.10;99.90
12130;DHT22;6128;59.340;18.040;2023-08-01T11:11:52;21.10;99.90
12130;DHT22;6128;59.340;18.040;2023-08-01T11:14:20;21.20;99.90
12130;DHT22;6128;59.340;18.040;2023-08-01T11:16:48;21.30;99.90
12130;DHT22;6128;59.340;18.040;2023-08-01T11:19:22;21.30;99.90
12130;DHT22;6128;59.340;18.040;2023-08-01T11:21:50;21.50;99.90
12130;DHT22;6128;59.340;18.040;2023-08-01T11:24:18;21.60;99.90
12130;DHT22;6128;59.340;18.040;2023-08-01T11:26:47;21.60;99.90
12130;DHT22;6128;59.340;18.040;2023-08-01T11:29:15;21.70;99.90
12130;DHT22;6128;59.340;18.040;2023-08-01T11:31:53;21.80;99.90
12130;DHT22;6128;59.340;18.040;2023-08-01T11:34:22;21.90;99.90
12130;DHT22;6128;59.340;18.040;2023-08-01T11:36:50;21.90;99.90
12130;DHT22;6128;59.340;18.040;2023-08-01T11:39:17;21.80;99.90
12130;DHT22;6128;59.340;18.040;2023-08-01T11:41:45;21.80;99.90
12130;DHT22;6128;59.340;18.040;2023-08-01T11:44:12;21.80;99.90
12130;DHT22;6128;59.340;18.040;2023-08-01T11:46:39;21.50;99.90
12130;DHT22;6128;59.340;18.040;2023-08-01T11:49:07;21.50;99.90
12130;DHT22;6128;59.340;18.040;2023-08-01T11:51:40;21.60;99.90
12130;DHT22;6128;59.340;18.040;2023-08-01T11:54:08;21.60;99.90
12130;DHT22;6128;59.340;18.040;2023-08-01T11:56:37;21.60;99.90
12130;DHT22;6128;59.340;18.040;2023-08-01T11:59:08;21.70;99.90
12130;DHT22;6128;59.340;18.040;2023-08-01T12:01:38;21.90;99.90
12130;DHT22;6128;59.340;18.040;2023-08-01T12:04:06;22.10;99.90
12130;DHT22;6128;59.340;18.040;2023-08-01T12:06:34;22.10;99.90
12130;DHT22;6128;59.340;18.040;2023-08-01T12:09:09;22.10;99.90
12130;DHT22;6128;59.340;18.040;2023-08-01T12:11:36;21.90;99.90
12130;DHT22;6128;59.340;18.040;2023-08-01T12:14:05;21.70;99.90
12130;DHT22;6128;59.340;18.040;2023-08-01T12:16:36;21.70;99.90
12130;DHT22;6128;59.340;18.040;2023-08-01T12:19:04;21.90;99.90
12130;DHT22;6128;59.340;18.040;2023-08-01T12:21:34;21.90;99.90
12130;DHT22;6128;59.340;18.040;2023-08-01T12:24:02;21.70;99.90
12130;DHT22;6128;59.340;18.040;2023-08-01T12:26:31;21.30;99.90
12130;DHT22;6128;59.340;18.040;2023-08-01T12:28:58;21.10;99.90
12130;DHT22;6128;59.340;18.040;2023-08-01T12:31:25;21.10;99.90
12130;DHT22;6128;59.340;18.040;2023-08-01T12:33:52;20.90;99.90
12130;DHT22;6128;59.340;18.040;2023-08-01T12:36:20;20.90;99.90
12130;DHT22;6128;59.340;18.040;2023-08-01T12:38:46;20.80;99.90
12130;DHT22;6128;59.340;18.040;2023-08-01T12:41:13;20.90;99.90
12130;DHT22;6128;59.340;18.040;2023-08-01T12:43:42;20.90;99.90
12130;DHT22;6128;59.340;18.040;2023-08-01T12:46:09;20.70;99.90
12130;DHT22;6128;59.340;18.040;2023-08-01T12:48:36;20.40;99.90
12130;DHT22;6128;59.340;18.040;2023-08-01T12:51:03;20.40;99.90
12130;DHT22;6128;59.340;18.040;2023-08-01T12:53:30;20.20;99.90
12130;DHT22;6128;59.340;18.040;2023-08-01T12:55:58;20.30;99.90
12130;DHT22;6128;59.340;18.040;2023-08-01T12:58:25;20.30;99.90
12130;DHT22;6128;59.340;18.040;2023-08-01T13:00:54;20.20;99.90
12130;DHT22;6128;59.340;18.040;2023-08-01T13:03:20;20.30;99.90
12130;DHT22;6128;59.340;18.040;2023-08-01T13:05:48;20.30;99.90
12130;DHT22;6128;59.340;18.040;2023-08-01T13:08:15;20.20;99.90
12130;DHT22;6128;59.340;18.040;2023-08-01T13:10:42;20.20;99.90
12130;DHT22;6128;59.340;18.040;2023-08-01T13:13:11;20.20;99.90
12130;DHT22;6128;59.340;18.040;2023-08-01T13:15:39;20.20;99.90
12130;DHT22;6128;59.340;18.040;2023-08-01T13:18:07;20.20;99.90
12130;DHT22;6128;59.340;18.040;2023-08-01T13:20:34;20.20;99.90
12130;DHT22;6128;59.340;18.040;2023-08-01T13:23:02;20.30;99.90
12130;DHT22;6128;59.340;18.040;2023-08-01T13:25:29;20.50;99.90
12130;DHT22;6128;59.340;18.040;2023-08-01T13:27:56;20.50;99.90
12130;DHT22;6128;59.340;18.040;2023-08-01T13:30:24;20.50;99.90
12130;DHT22;6128;59.340;18.040;2023-08-01T13:32:51;20.60;99.90
12130;DHT22;6128;59.340;18.040;2023-08-01T13:35:19;20.50;99.90
12130;DHT22;6128;59.340;18.040;2023-08-01T13:37:46;20.40;99.90
12130;DHT22;6128;59.340;18.040;2023-08-01T13:40:14;20.40;99.90
12130;DHT22;6128;59.340;18.040;2023-08-01T13:42:41;20.50;99.90
12130;DHT22;6128;59.340;18.040;2023-08-01T13:45:09;20.60;99.90
12130;DHT22;6128;59.340;18.040;2023-08-01T13:47:36;20.70;99.90
12130;DHT22;6128;59.340;18.040;2023-08-01T13:50:04;20.80;99.90
12130;DHT22;6128;59.340;18.040;2023-08-01T13:52:33;21.00;99.90
12130;DHT22;6128;59.340;18.040;2023-08-01T13:55:00;21.20;99.90
12130;DHT22;6128;59.340;18.040;2023-08-01T13:57:28;21.00;99.90
12130;DHT22;6128;59.340;18.040;2023-08-01T13:59:55;21.20;99.90
12130;DHT22;6128;59.340;18.040;2023-08-01T14:02:23;21.10;99.90
12130;DHT22;6128;59.340;18.040;2023-08-01T14:04:51;21.20;99.90
12130;DHT22;6128;59.340;18.040;2023-08-01T14:07:18;21.20;99.90
12130;DHT22;6128;59.340;18.040;2023-08-01T14:09:48;21.30;99.90
12130;DHT22;6128;59.340;18.040;2023-08-01T14:12:15;21.40;99.90
12130;DHT22;6128;59.340;18.040;2023-08-01T14:14:45;21.40;99.90
12130;DHT22;6128;59.340;18.040;2023-08-01T14:17:12;21.10;99.90
12130;DHT22;6128;59.340;18.040;2023-08-01T14:19:39;21.10;99.90
12130;DHT22;6128;59.340;18.040;2023-08-01T14:22:06;20.90;99.90
12130;DHT22;6128;59.340;18.040;2023-08-01T14:24:33;21.00;99.90
12130;DHT22;6128;59.340;18.040;2023-08-01T14:27:02;21.00;99.90
12130;DHT22;6128;59.340;18.040;2023-08-01T14:29:29;21.00;99.90
12130;DHT22;6128;59.340;18.040;2023-08-01T14:31:56;20.70;99.90
12130;DHT22;6128;59.340;18.040;2023-08-01T14:34:24;20.70;99.90
12130;DHT22;6128;59.340;18.040;2023-08-01T14:36:51;20.70;99.90
12130;DHT22;6128;59.340;18.040;2023-08-01T14:39:18;20.70;99.90
12130;DHT22;6128;59.340;18.040;2023-08-01T14:41:45;20.80;99.90
12130;DHT22;6128;59.340;18.040;2023-08-01T14:44:14;20.60;99.90
12130;DHT22;6128;59.340;18.040;2023-08-01T14:46:41;20.60;99.90
12130;DHT22;6128;59.340;18.040;2023-08-01T14:49:10;20.70;99.90
12130;DHT22;6128;59.340;18.040;2023-08-01T14:51:37;20.60;99.90
12130;DHT22;6128;59.340;18.040;2023-08-01T14:54:04;20.30;99.90
12130;DHT22;6128;59.340;18.040;2023-08-01T14:56:31;20.20;99.90
12130;DHT22;6128;59.340;18.040;2023-08-01T14:58:58;20.10;99.90
12130;DHT22;6128;59.340;18.040;2023-08-01T15:01:27;20.10;99.90
12130;DHT22;6128;59.340;18.040;2023-08-01T15:03:54;20.10;99.90
12130;DHT22;6128;59.340;18.040;2023-08-01T15:06:21;20.10;99.90
12130;DHT22;6128;59.340;18.040;2023-08-01T15:08:49;20.20;99.90
12130;DHT22;6128;59.340;18.040;2023-08-01T15:11:16;20.40;99.90
12130;DHT22;6128;59.340;18.040;2023-08-01T15:13:43;20.40;99.90
12130;DHT22;6128;59.340;18.040;2023-08-01T15:16:11;20.30;99.90
12130;DHT22;6128;59.340;18.040;2023-08-01T15:18:40;20.30;99.90
12130;DHT22;6128;59.340;18.040;2023-08-01T15:21:07;20.20;99.90
12130;DHT22;6128;59.340;18.040;2023-08-01T15:23:35;20.10;99.90
12130;DHT22;6128;59.340;18.040;2023-08-01T15:26:02;19.90;99.90
12130;DHT22;6128;59.340;18.040;2023-08-01T15:28:29;19.70;99.90
12130;DHT22;6128;59.340;18.040;2023-08-01T15:31:03;19.70;99.90
12130;DHT22;6128;59.340;18.040;2023-08-01T15:33:31;19.60;99.90